Tabas, Iran
Current Conditions -  °F | °C
As of 2:00 PM on Friday 31 Oct 2014 (Local Time) from OIMB Reporting Station
Clear Clear  
Wind Chill: 19°   Ceiling: Unl
Heat Index: 19°   Visibility: 6mi
Dew Point: -5°   Wind: 12mph
Humidity: 19%   Direction: 340°NNW
Pressure: 30.09"   Gusts: NA
Location:  33.59°N, 56.92°E
Report Text: OIMB 311100Z 34010KT CAVOK 19/M05 Q1019
Loading
Personal Weather Stations






























Interactive Weather Map
Tropical Storm Tracking
New forecast layout! Learn more

10-Day Weather Forecast

Advertisements
Track Severe Weather on mobile